Time;durP1;ratioP1;P1;durP2;ratioP2;P2;SDS_P1;SDS_P2;PMS_P1;PMS_P2;Temp;Humidity;BMP_temperature;BMP_pressure;BME280_temperature;BME280_humidity;BME280_pressure;Samples;Min_cycle;Max_cycle;Signal;HPM_P1;HPM_P2
2022/05/06 00:00:23;;;;;;;26.93;15.50;;;15.10;99.90;;;;;;5041586;28;20329;-96
2022/05/06 00:02:49;;;;;;;23.33;15.30;;;14.70;99.90;;;;;;5040972;28;20167;-92
2022/05/06 00:05:15;;;;;;;22.43;14.90;;;14.50;99.90;;;;;;5057712;28;20169;-96
2022/05/06 00:07:44;;;;;;;22.20;15.93;;;14.90;99.90;;;;;;5023527;28;20184;-96
2022/05/06 00:10:14;;;;;;;22.33;14.83;;;14.70;99.90;;;;;;5038839;28;20259;-96
2022/05/06 00:12:46;;;;;;;27.03;16.23;;;14.50;99.90;;;;;;5064216;28;20201;-96
2022/05/06 00:15:12;;;;;;;24.33;15.23;;;14.80;99.90;;;;;;5059014;28;20170;-96
2022/05/06 00:17:39;;;;;;;22.67;15.40;;;14.50;99.90;;;;;;5076419;28;20147;-96
2022/05/06 00:20:07;;;;;;;29.00;15.83;;;14.20;99.90;;;;;;5056597;28;20198;-96
2022/05/06 00:22:36;;;;;;;22.70;15.13;;;14.20;99.90;;;;;;5037571;28;20148;-96
2022/05/06 00:25:05;;;;;;;29.43;16.77;;;14.30;99.90;;;;;;5036189;28;20240;-96
2022/05/06 00:27:30;;;;;;;28.03;16.27;;;14.40;99.90;;;;;;5037088;28;20236;-95
2022/05/06 00:29:57;;;;;;;25.93;15.90;;;14.50;99.90;;;;;;5054039;28;20180;-94
2022/05/06 00:32:22;;;;;;;25.83;17.10;;;14.50;99.90;;;;;;5035686;28;20202;-94
2022/05/06 00:34:49;;;;;;;25.40;16.53;;;14.60;99.90;;;;;;5035038;28;20168;-96
2022/05/06 00:37:14;;;;;;;27.70;18.43;;;14.80;99.90;;;;;;5036301;28;20224;-96
2022/05/06 00:39:40;;;;;;;27.33;17.80;;;15.10;99.90;;;;;;5036041;28;20187;-95
2022/05/06 00:42:09;;;;;;;28.40;17.33;;;15.00;99.90;;;;;;5036842;28;20253;-95
2022/05/06 00:44:34;;;;;;;26.87;17.00;;;14.90;99.90;;;;;;5037287;28;20177;-96
2022/05/06 00:47:03;;;;;;;27.33;17.90;;;14.80;99.90;;;;;;5036882;28;20200;-96
2022/05/06 00:49:29;;;;;;;31.83;17.67;;;15.00;99.90;;;;;;5036474;28;20156;-93
2022/05/06 00:51:56;;;;;;;29.73;17.23;;;14.90;99.90;;;;;;5020098;28;20235;-94
2022/05/06 00:54:23;;;;;;;28.30;17.13;;;15.00;99.90;;;;;;5034865;28;20241;-96
2022/05/06 00:56:50;;;;;;;26.93;17.33;;;15.20;99.90;;;;;;5035341;28;20203;-96
2022/05/06 00:59:16;;;;;;;27.70;16.77;;;15.30;99.90;;;;;;5002518;28;20174;-95
2022/05/06 01:01:48;;;;;;;27.57;17.80;;;15.30;99.90;;;;;;5022381;28;20190;-96
2022/05/06 01:04:17;;;;;;;29.07;19.30;;;15.20;99.90;;;;;;5042533;28;20179;-92
2022/05/06 01:06:45;;;;;;;29.10;18.30;;;15.20;99.90;;;;;;5042858;28;20158;-93
2022/05/06 01:09:19;;;;;;;30.13;18.17;;;15.10;99.90;;;;;;5025784;28;20176;-94
2022/05/06 01:11:45;;;;;;;29.40;18.00;;;15.10;99.90;;;;;;5026500;28;20207;-92
2022/05/06 01:14:31;;;;;;;26.83;17.60;;;15.10;99.90;;;;;;5041488;28;20182;-96
2022/05/06 01:17:00;;;;;;;26.00;16.50;;;15.10;99.90;;;;;;5039854;28;20178;-94
2022/05/06 01:19:26;;;;;;;26.53;16.60;;;15.10;99.90;;;;;;5055579;28;20245;-91
2022/05/06 01:21:54;;;;;;;24.37;17.20;;;14.90;99.90;;;;;;5057934;28;20173;-95
2022/05/06 01:24:21;;;;;;;27.23;15.47;;;14.80;99.90;;;;;;5022686;28;20215;-93
2022/05/06 01:27:09;;;;;;;25.53;16.33;;;15.00;99.90;;;;;;5038118;28;20185;-93
2022/05/06 01:29:39;;;;;;;24.27;16.30;;;14.80;99.90;;;;;;5037029;28;20183;-95
2022/05/06 01:32:07;;;;;;;27.43;15.40;;;14.80;99.90;;;;;;5037561;28;20232;-95
2022/05/06 01:34:38;;;;;;;24.67;16.63;;;14.90;99.90;;;;;;5021731;28;20176;-96
2022/05/06 01:37:11;;;;;;;22.13;15.60;;;14.90;99.90;;;;;;5005311;28;20187;-96
2022/05/06 01:39:40;;;;;;;24.20;15.60;;;14.90;99.90;;;;;;5004859;28;20182;-95
2022/05/06 01:42:12;;;;;;;30.93;15.37;;;14.60;99.90;;;;;;5036016;28;20200;-96
2022/05/06 01:44:52;;;;;;;24.87;15.30;;;14.40;99.90;;;;;;5048888;28;20185;-96
2022/05/06 01:47:27;;;;;;;24.87;16.50;;;14.30;99.90;;;;;;5057211;28;20191;-96
2022/05/06 01:49:58;;;;;;;34.03;15.63;;;14.30;99.90;;;;;;5057294;28;20205;-96
2022/05/06 01:52:27;;;;;;;24.50;16.93;;;14.20;99.90;;;;;;5041201;28;20214;-96
2022/05/06 01:54:54;;;;;;;27.97;16.83;;;14.40;99.90;;;;;;5041376;28;20245;-96
2022/05/06 01:57:20;;;;;;;27.53;18.20;;;14.40;99.90;;;;;;5057685;28;20183;-96
2022/05/06 01:59:48;;;;;;;33.77;17.83;;;14.20;99.90;;;;;;5057908;28;20179;-96
2022/05/06 02:02:16;;;;;;;24.87;15.57;;;14.20;99.90;;;;;;5057041;28;20182;-95
2022/05/06 02:07:26;;;;;;;27.97;14.90;;;14.50;99.90;;;;;;5072763;28;20195;-95
2022/05/06 02:09:51;;;;;;;24.83;14.60;;;14.80;99.90;;;;;;5060180;28;20181;-93
2022/05/06 02:12:17;;;;;;;24.20;15.00;;;15.00;99.90;;;;;;5056893;28;20207;-93
2022/05/06 02:14:43;;;;;;;20.57;14.53;;;14.90;99.90;;;;;;5043963;28;20202;-93
2022/05/06 02:17:10;;;;;;;30.17;15.00;;;14.60;99.90;;;;;;5059869;28;20178;-95
2022/05/06 02:19:36;;;;;;;23.40;14.17;;;14.40;99.90;;;;;;5042083;28;20178;-91
2022/05/06 02:22:03;;;;;;;19.83;13.53;;;14.70;99.90;;;;;;5024620;28;20234;-96
2022/05/06 02:24:29;;;;;;;21.53;14.63;;;14.50;99.90;;;;;;5043139;28;20179;-94
2022/05/06 02:26:55;;;;;;;20.73;13.60;;;14.50;99.90;;;;;;5042711;28;20211;-94
2022/05/06 02:29:21;;;;;;;20.33;13.37;;;14.30;99.90;;;;;;5042157;28;20181;-90
2022/05/06 02:34:36;;;;;;;17.73;13.37;;;14.30;99.90;;;;;;5059926;28;20204;-96
2022/05/06 02:37:03;;;;;;;21.37;13.47;;;14.30;99.90;;;;;;5040324;28;20188;-96
2022/05/06 02:39:29;;;;;;;20.97;14.70;;;14.30;99.90;;;;;;5057539;28;20226;-96
2022/05/06 02:41:56;;;;;;;23.07;15.30;;;14.40;99.90;;;;;;5040781;28;20179;-96
2022/05/06 02:44:28;;;;;;;21.70;14.87;;;14.30;99.90;;;;;;5055873;28;20169;-96
2022/05/06 02:46:55;;;;;;;25.00;14.70;;;14.20;99.90;;;;;;5055736;28;20216;-95
2022/05/06 02:49:20;;;;;;;22.17;15.40;;;14.20;99.90;;;;;;5055568;28;20204;-95
2022/05/06 02:51:46;;;;;;;21.77;14.73;;;14.10;99.90;;;;;;5056153;28;20187;-96
2022/05/06 02:54:12;;;;;;;23.90;15.60;;;14.20;99.90;;;;;;5056394;28;20175;-95
2022/05/06 02:56:38;;;;;;;22.23;15.23;;;14.20;99.90;;;;;;5055779;28;20174;-96
2022/05/06 02:59:05;;;;;;;24.17;15.43;;;14.30;99.90;;;;;;5056763;28;20181;-96
2022/05/06 03:01:33;;;;;;;26.30;15.73;;;14.60;99.90;;;;;;5056444;28;20185;-95
2022/05/06 03:04:03;;;;;;;24.33;15.47;;;14.70;99.90;;;;;;5055721;28;20508;-95
2022/05/06 03:06:29;;;;;;;26.03;15.03;;;14.70;99.90;;;;;;5057454;28;20174;-96
2022/05/06 03:08:58;;;;;;;22.40;15.77;;;14.50;99.90;;;;;;5057121;28;20209;-96
2022/05/06 03:11:24;;;;;;;24.97;16.23;;;14.30;99.90;;;;;;5069202;28;20190;-95
2022/05/06 03:13:49;;;;;;;23.40;16.73;;;13.90;99.90;;;;;;5039097;28;20162;-96
2022/05/06 03:16:16;;;;;;;25.73;15.93;;;13.80;99.90;;;;;;5038844;28;20175;-96
2022/05/06 03:18:42;;;;;;;24.77;16.77;;;13.80;99.90;;;;;;5039370;28;20175;-93
2022/05/06 03:21:07;;;;;;;26.10;14.77;;;14.00;99.90;;;;;;5023992;28;20202;-93
2022/05/06 03:23:57;;;;;;;22.70;14.50;;;14.20;99.90;;;;;;5043196;28;20175;-92
2022/05/06 03:26:23;;;;;;;25.23;15.50;;;14.30;99.90;;;;;;5044410;28;20172;-91
2022/05/06 03:29:17;;;;;;;19.97;13.67;;;14.10;99.90;;;;;;5044814;28;20165;-91
2022/05/06 03:32:04;;;;;;;24.03;13.47;;;14.00;99.90;;;;;;5061528;28;20228;-92
2022/05/06 03:34:36;;;;;;;33.67;14.87;;;14.10;99.90;;;;;;5045077;28;20267;-92
2022/05/06 03:37:45;;;;;;;21.23;13.43;;;14.20;99.90;;;;;;5045113;28;20191;-90
2022/05/06 03:41:11;;;;;;;32.23;13.97;;;13.90;99.90;;;;;;5061621;28;20167;-92
2022/05/06 03:43:53;;;;;;;26.20;14.53;;;14.10;99.90;;;;;;5044857;28;20241;-91
2022/05/06 03:46:58;;;;;;;35.90;14.67;;;14.00;99.90;;;;;;5061636;28;20208;-91
2022/05/06 03:49:32;;;;;;;23.80;14.57;;;13.80;99.90;;;;;;5044863;28;20187;-91
2022/05/06 03:52:38;;;;;;;19.13;13.07;;;13.60;99.90;;;;;;5044561;28;20294;-91
2022/05/06 03:56:06;;;;;;;21.97;13.37;;;13.70;99.90;;;;;;5061374;28;20179;-89
2022/05/06 03:58:52;;;;;;;20.80;11.97;;;14.00;99.90;;;;;;5044322;28;20185;-89
2022/05/06 04:01:38;;;;;;;19.17;12.53;;;14.20;99.90;;;;;;5044771;28;20198;-91
2022/05/06 04:04:47;;;;;;;23.03;12.90;;;14.20;99.90;;;;;;5044676;28;20190;-90
2022/05/06 04:11:09;;;;;;;20.13;12.53;;;13.70;99.90;;;;;;5017229;28;20215;-90
2022/05/06 04:13:46;;;;;;;27.23;12.87;;;14.00;99.90;;;;;;5004038;28;20172;-91
2022/05/06 04:16:43;;;;;;;18.13;11.77;;;13.70;99.90;;;;;;5002336;28;20171;-91
2022/05/06 04:23:29;;;;;;;17.73;12.07;;;13.50;99.90;;;;;;5021045;28;20235;-91
2022/05/06 04:26:46;;;;;;;18.47;11.70;;;13.40;99.90;;;;;;5010295;28;20189;-90
2022/05/06 04:29:54;;;;;;;18.93;12.20;;;13.50;99.90;;;;;;5004750;28;20172;-89
2022/05/06 04:32:40;;;;;;;16.60;11.43;;;13.60;99.90;;;;;;5003402;28;20235;-90
2022/05/06 04:35:44;;;;;;;17.57;12.20;;;13.60;99.90;;;;;;5020605;28;20149;-91
2022/05/06 04:38:48;;;;;;;16.93;11.20;;;13.50;99.90;;;;;;5029555;28;20182;-90
2022/05/06 04:41:56;;;;;;;17.63;10.90;;;13.50;99.90;;;;;;5057607;28;20226;-91
2022/05/06 04:44:44;;;;;;;17.47;10.90;;;13.50;99.90;;;;;;5043874;28;20164;-91
2022/05/06 04:47:23;;;;;;;16.93;10.77;;;13.70;99.90;;;;;;5042502;28;20229;-91
2022/05/06 04:50:33;;;;;;;21.03;11.73;;;13.70;99.90;;;;;;5060155;28;20248;-90
2022/05/06 04:53:23;;;;;;;15.70;10.77;;;13.80;99.90;;;;;;5043490;28;20259;-90
2022/05/06 04:56:37;;;;;;;19.43;11.27;;;13.70;99.90;;;;;;5060289;28;20181;-89
2022/05/06 04:59:52;;;;;;;16.60;10.73;;;13.80;99.90;;;;;;5060005;28;20176;-90
2022/05/06 05:02:27;;;;;;;16.33;10.67;;;13.90;99.90;;;;;;5041402;28;20169;-91
2022/05/06 05:05:52;;;;;;;17.17;11.13;;;13.90;99.90;;;;;;5060385;28;20184;-91
2022/05/06 05:09:07;;;;;;;15.33;11.30;;;13.70;99.90;;;;;;5058400;28;20161;-90
2022/05/06 05:11:54;;;;;;;17.57;11.37;;;13.70;99.90;;;;;;5060027;28;20230;-94
2022/05/06 05:14:43;;;;;;;16.93;11.37;;;13.70;99.90;;;;;;5043093;28;20238;-90
2022/05/06 05:17:10;;;;;;;23.10;10.93;;;14.00;99.90;;;;;;5059388;28;20182;-93
2022/05/06 05:19:36;;;;;;;19.33;11.20;;;13.90;99.90;;;;;;5042556;28;20161;-93
2022/05/06 05:22:02;;;;;;;22.23;11.63;;;13.80;99.90;;;;;;5042258;28;20156;-89
2022/05/06 05:24:27;;;;;;;22.60;11.67;;;13.70;99.90;;;;;;5041896;28;20166;-94
2022/05/06 05:26:57;;;;;;;30.13;12.53;;;13.90;99.90;;;;;;5046743;28;20188;-93
2022/05/06 05:29:23;;;;;;;14.23;10.53;;;14.10;99.90;;;;;;5062388;28;20176;-93
2022/05/06 05:31:52;;;;;;;20.20;13.17;;;13.90;99.90;;;;;;5061780;28;20209;-94
2022/05/06 05:34:21;;;;;;;18.77;12.70;;;13.80;99.90;;;;;;5061934;28;20247;-92
2022/05/06 05:36:46;;;;;;;19.50;12.93;;;13.80;99.90;;;;;;5041699;28;20196;-96
2022/05/06 05:39:12;;;;;;;21.43;13.40;;;13.90;99.90;;;;;;5041580;28;20167;-93
2022/05/06 05:41:38;;;;;;;17.53;11.73;;;14.00;99.90;;;;;;5050960;28;20243;-92
2022/05/06 05:49:33;;;;;;;19.10;12.23;;;14.30;99.90;;;;;;5077656;28;20246;-93
2022/05/06 05:52:00;;;;;;;16.27;11.37;;;14.40;99.90;;;;;;5054687;28;20203;-92
2022/05/06 05:54:26;;;;;;;17.83;12.60;;;14.70;99.90;;;;;;5041189;28;20194;-92
2022/05/06 05:56:54;;;;;;;16.47;11.67;;;14.70;99.90;;;;;;5041228;28;20196;-92
2022/05/06 05:59:20;;;;;;;18.43;12.60;;;14.70;99.90;;;;;;5041455;28;20179;-91
2022/05/06 07:03:54;;;;;;;20.70;13.90;;;15.40;99.90;;;;;;6066687;23;20185;-92
2022/05/06 07:34:58;;;;;;;20.33;13.33;;;15.40;99.90;;;;;;5048479;28;20218;-93
2022/05/06 10:04:02;;;;;;;25.90;15.43;;;17.90;99.90;;;;;;1335910;23;20477;-89
2022/05/06 10:06:39;;;;;;;32.43;15.47;;;18.00;99.90;;;;;;5030970;28;20208;-91
2022/05/06 12:05:26;;;;;;;8.95;6.68;;;33.50;60.10;;;;;;5020374;23;20217;-90
2022/05/06 14:56:10;;;;;;;16.13;7.93;;;36.20;47.80;;;;;;5892371;23;20228;-86
2022/05/06 14:58:36;;;;;;;116.95;14.00;;;35.50;47.80;;;;;;4996061;28;20633;-85
2022/05/06 15:01:02;;;;;;;15.43;6.85;;;35.30;48.00;;;;;;4995438;28;20173;-85
2022/05/06 18:39:56;;;;;;;8.50;6.00;;;27.60;55.90;;;;;;5012005;28;20209;-84
2022/05/06 18:42:22;;;;;;;9.27;6.53;;;27.30;57.30;;;;;;4992560;28;20180;-85
2022/05/06 18:44:49;;;;;;;10.77;7.10;;;27.10;57.40;;;;;;4995216;28;20229;-86
2022/05/06 18:47:15;;;;;;;12.17;7.10;;;26.90;57.70;;;;;;4992535;28;20216;-85
2022/05/06 18:49:42;;;;;;;7.67;6.77;;;26.90;57.50;;;;;;4993339;28;20185;-85
2022/05/06 18:52:08;;;;;;;11.53;7.27;;;26.90;57.40;;;;;;4992232;28;20210;-85
2022/05/06 18:54:36;;;;;;;9.83;7.43;;;26.90;57.40;;;;;;4992946;28;20189;-85
2022/05/06 18:57:02;;;;;;;29.03;9.67;;;26.80;57.20;;;;;;4992048;28;20189;-85
2022/05/06 18:59:27;;;;;;;26.83;8.13;;;26.80;57.10;;;;;;4992421;28;20675;-84
2022/05/06 19:01:56;;;;;;;14.27;8.13;;;26.70;58.10;;;;;;4995293;28;20180;-85
2022/05/06 19:04:24;;;;;;;8.90;6.20;;;26.40;57.80;;;;;;4992182;28;20182;-85
2022/05/06 19:06:50;;;;;;;9.40;6.03;;;26.50;59.00;;;;;;4995384;28;20185;-85
2022/05/06 19:09:16;;;;;;;7.23;5.47;;;26.30;59.70;;;;;;5013138;28;20661;-85
2022/05/06 19:11:42;;;;;;;42.50;8.33;;;26.20;60.20;;;;;;5012847;28;20291;-85
2022/05/06 19:14:11;;;;;;;12.47;7.33;;;26.20;59.10;;;;;;4992598;28;20174;-85
2022/05/06 19:16:37;;;;;;;10.33;7.07;;;26.10;59.90;;;;;;4993444;28;20177;-85
2022/05/06 19:19:04;;;;;;;7.73;6.50;;;25.80;60.20;;;;;;4992415;28;20223;-85
2022/05/06 19:26:58;;;;;;;10.37;6.77;;;25.40;61.90;;;;;;5005248;28;20188;-85
2022/05/06 19:29:23;;;;;;;9.43;6.30;;;25.30;62.30;;;;;;4992436;28;20205;-84
2022/05/06 19:31:49;;;;;;;9.50;6.20;;;25.10;62.70;;;;;;4994807;28;20263;-85
2022/05/06 19:34:15;;;;;;;27.60;8.27;;;25.10;63.10;;;;;;4995253;28;20664;-84
2022/05/06 19:36:40;;;;;;;14.17;8.10;;;24.90;62.80;;;;;;4995467;28;20197;-84
2022/05/06 19:39:07;;;;;;;12.90;7.93;;;24.80;62.80;;;;;;4994896;28;20215;-84
2022/05/06 19:41:33;;;;;;;34.87;8.87;;;25.00;63.10;;;;;;4995401;28;20180;-85
2022/05/06 19:43:58;;;;;;;15.83;8.57;;;25.00;63.40;;;;;;5013209;28;20590;-84
2022/05/06 19:46:25;;;;;;;10.83;7.90;;;24.80;63.20;;;;;;4995672;28;20212;-85
2022/05/06 19:48:51;;;;;;;12.57;6.80;;;24.70;63.10;;;;;;4995552;28;20189;-84
2022/05/06 19:51:18;;;;;;;14.17;7.60;;;24.60;64.50;;;;;;4994983;28;20642;-85
2022/05/06 19:53:45;;;;;;;12.60;7.63;;;24.40;65.10;;;;;;4995372;28;20178;-85
2022/05/06 19:56:11;;;;;;;13.57;8.07;;;24.10;65.70;;;;;;4995067;28;20186;-85
2022/05/06 19:58:37;;;;;;;16.40;8.33;;;23.90;65.90;;;;;;4995321;28;20598;-84
2022/05/06 20:01:03;;;;;;;9.27;6.80;;;24.00;65.80;;;;;;4995811;28;20181;-85
2022/05/06 20:03:29;;;;;;;11.83;7.00;;;24.20;65.70;;;;;;5016476;28;20200;-85
2022/05/06 20:05:55;;;;;;;14.33;6.50;;;23.90;66.70;;;;;;4999111;28;20268;-84
2022/05/06 20:08:20;;;;;;;12.20;7.57;;;23.80;66.90;;;;;;4998405;28;20688;-84
2022/05/06 20:10:46;;;;;;;10.80;7.83;;;23.70;67.20;;;;;;4998772;28;20184;-85
2022/05/06 20:13:11;;;;;;;11.43;9.10;;;23.50;67.70;;;;;;4998863;28;20239;-84
2022/05/06 20:15:38;;;;;;;15.83;8.63;;;23.60;67.50;;;;;;4998641;28;20173;-84
2022/05/06 20:18:04;;;;;;;13.23;9.30;;;23.60;67.90;;;;;;4998615;28;20181;-84
2022/05/06 20:20:29;;;;;;;20.87;9.20;;;23.50;68.40;;;;;;4998841;28;20174;-84
2022/05/06 20:22:55;;;;;;;16.63;9.13;;;23.50;68.10;;;;;;4998289;28;20217;-85
2022/05/06 20:25:21;;;;;;;15.33;8.47;;;23.30;68.70;;;;;;4998394;28;20191;-85
2022/05/06 20:27:46;;;;;;;14.37;9.20;;;23.20;69.50;;;;;;4998404;28;20203;-84
2022/05/06 20:30:12;;;;;;;13.00;9.30;;;23.20;69.70;;;;;;4998365;28;20202;-84
2022/05/06 20:32:38;;;;;;;17.57;9.43;;;23.20;70.20;;;;;;4998281;28;20677;-84
2022/05/06 20:35:05;;;;;;;17.27;9.83;;;23.20;70.20;;;;;;4998299;28;20185;-84
2022/05/06 20:37:31;;;;;;;18.13;9.53;;;23.10;70.80;;;;;;4998102;28;20217;-84
2022/05/06 20:39:57;;;;;;;13.13;9.13;;;22.90;71.20;;;;;;5015667;28;20174;-84
2022/05/06 20:42:22;;;;;;;35.53;10.77;;;22.90;71.50;;;;;;4997985;28;20192;-84
2022/05/06 20:44:49;;;;;;;29.53;10.73;;;22.80;71.60;;;;;;4998014;28;20175;-84
2022/05/06 20:47:17;;;;;;;18.17;9.97;;;22.70;72.20;;;;;;4997857;28;20740;-84
2022/05/06 20:49:43;;;;;;;16.10;9.97;;;22.70;72.30;;;;;;5015481;28;20184;-84
2022/05/06 20:52:09;;;;;;;16.73;10.80;;;22.60;72.60;;;;;;4997278;28;20681;-84
2022/05/06 20:54:35;;;;;;;44.63;12.43;;;22.50;73.10;;;;;;4997921;28;20273;-84
2022/05/06 20:59:45;;;;;;;17.90;10.87;;;22.30;73.50;;;;;;5015598;28;20288;-84
2022/05/06 21:02:12;;;;;;;15.97;11.13;;;22.40;73.90;;;;;;4997509;28;20280;-84
2022/05/06 21:04:38;;;;;;;21.63;12.93;;;22.30;73.80;;;;;;4997728;28;20621;-84
2022/05/06 21:07:03;;;;;;;21.17;12.80;;;22.20;73.80;;;;;;4997457;28;20188;-84
2022/05/06 21:15:00;;;;;;;22.43;11.20;;;22.00;75.20;;;;;;5015375;28;20168;-84
2022/05/06 21:17:29;;;;;;;19.97;11.60;;;22.10;75.50;;;;;;4997060;28;20187;-84
2022/05/06 21:19:56;;;;;;;24.67;12.33;;;22.20;75.00;;;;;;4997432;28;20622;-84
2022/05/06 21:22:22;;;;;;;21.97;12.03;;;22.00;75.40;;;;;;4996917;28;20186;-84
2022/05/06 21:24:48;;;;;;;22.37;11.37;;;22.00;75.60;;;;;;4997539;28;20256;-84
2022/05/06 21:27:14;;;;;;;25.17;12.17;;;22.00;75.70;;;;;;4997309;28;20271;-84
2022/05/06 21:29:40;;;;;;;34.37;12.57;;;22.10;75.90;;;;;;4997018;28;20197;-84
2022/05/06 21:32:07;;;;;;;25.93;11.80;;;22.00;75.80;;;;;;4997203;28;20208;-84
2022/05/06 21:34:32;;;;;;;26.07;12.43;;;22.00;75.70;;;;;;4997148;28;20200;-84
2022/05/06 21:36:58;;;;;;;22.00;12.43;;;22.00;76.10;;;;;;4996882;28;20170;-84
2022/05/06 21:39:24;;;;;;;22.73;12.10;;;21.90;76.00;;;;;;4996949;28;20192;-84
2022/05/06 21:41:49;;;;;;;17.13;12.00;;;22.00;76.20;;;;;;5014450;28;20169;-84
2022/05/06 21:44:15;;;;;;;17.63;11.60;;;21.90;76.70;;;;;;4996941;28;20216;-83
2022/05/06 21:46:41;;;;;;;18.97;11.87;;;21.90;77.00;;;;;;4996997;28;20185;-85
2022/05/06 21:49:06;;;;;;;18.33;12.40;;;22.00;77.00;;;;;;4996967;28;20176;-83
2022/05/06 21:51:32;;;;;;;19.57;12.93;;;22.10;76.50;;;;;;4996581;28;20192;-83
2022/05/06 21:53:58;;;;;;;23.53;11.87;;;21.70;77.50;;;;;;4996668;28;20227;-83
2022/05/06 21:56:24;;;;;;;18.80;12.33;;;21.80;78.20;;;;;;5014481;28;20165;-83
2022/05/06 21:58:49;;;;;;;18.97;12.47;;;21.70;78.60;;;;;;5014073;28;20189;-83
2022/05/06 22:01:16;;;;;;;20.63;12.00;;;21.70;78.50;;;;;;4996669;28;20208;-83
2022/05/06 22:03:42;;;;;;;27.70;14.27;;;21.40;78.80;;;;;;4996426;28;20188;-84
2022/05/06 22:06:08;;;;;;;18.73;13.50;;;21.20;79.50;;;;;;4996363;28;20200;-83
2022/05/06 22:08:34;;;;;;;20.47;14.13;;;21.20;80.20;;;;;;5013998;28;20567;-83
2022/05/06 22:10:59;;;;;;;18.90;14.13;;;21.10;80.50;;;;;;4996270;28;20524;-86
2022/05/06 22:13:25;;;;;;;19.67;14.17;;;20.90;80.90;;;;;;4996417;28;20216;-84
2022/05/06 22:15:51;;;;;;;18.17;13.40;;;20.90;81.20;;;;;;4996762;28;20343;-83
2022/05/06 22:18:17;;;;;;;14.87;13.03;;;20.90;81.70;;;;;;4996160;28;20252;-83
2022/05/06 22:20:44;;;;;;;17.27;12.33;;;20.90;81.90;;;;;;4996284;28;20193;-83
2022/05/06 22:23:10;;;;;;;19.13;13.67;;;21.10;81.20;;;;;;4996191;28;20188;-84
2022/05/06 22:25:36;;;;;;;17.33;12.77;;;21.00;82.10;;;;;;4995331;28;20175;-84
2022/05/06 22:28:02;;;;;;;21.80;13.33;;;20.80;83.00;;;;;;4996352;28;20185;-83
2022/05/06 22:30:28;;;;;;;17.63;13.87;;;20.70;83.50;;;;;;4996133;28;20200;-83
2022/05/06 22:35:39;;;;;;;20.03;13.60;;;20.80;83.90;;;;;;5013939;28;20243;-82
2022/05/06 22:38:05;;;;;;;19.40;13.50;;;20.80;83.70;;;;;;4995867;28;20189;-83
2022/05/06 22:40:30;;;;;;;16.87;13.33;;;20.60;84.10;;;;;;4995662;28;20640;-84
2022/05/06 22:46:00;;;;;;;19.03;13.20;;;20.40;85.70;;;;;;5013517;28;20247;-83
2022/05/06 22:48:34;;;;;;;17.43;14.23;;;20.20;86.20;;;;;;4995971;28;20649;-83
2022/05/06 22:51:01;;;;;;;26.40;14.67;;;20.20;87.00;;;;;;4995811;28;20190;-85
2022/05/06 22:53:27;;;;;;;23.43;15.30;;;20.10;87.70;;;;;;4995402;28;20208;-84
2022/05/06 22:55:55;;;;;;;20.30;15.27;;;20.20;87.70;;;;;;4995507;28;20244;-83
2022/05/06 22:58:21;;;;;;;19.33;13.53;;;20.10;88.40;;;;;;4995490;28;20752;-83
2022/05/06 23:00:48;;;;;;;20.57;13.70;;;20.00;88.70;;;;;;4995540;28;20642;-84
2022/05/06 23:03:14;;;;;;;18.23;14.20;;;20.00;89.10;;;;;;4995428;28;20208;-83
2022/05/06 23:05:40;;;;;;;17.47;13.53;;;20.00;89.70;;;;;;4995196;28;20278;-83
2022/05/06 23:08:06;;;;;;;19.93;12.87;;;20.10;89.60;;;;;;4995225;28;20188;-83
2022/05/06 23:10:32;;;;;;;20.60;14.27;;;20.20;89.80;;;;;;5012988;28;20169;-84
2022/05/06 23:12:57;;;;;;;19.67;14.10;;;20.80;86.20;;;;;;4995523;28;20723;-83
2022/05/06 23:15:23;;;;;;;20.10;14.50;;;20.70;86.80;;;;;;4995422;28;20259;-83
2022/05/06 23:17:49;;;;;;;18.37;13.37;;;20.50;86.90;;;;;;4995258;28;20187;-84
2022/05/06 23:20:15;;;;;;;17.50;13.27;;;20.50;88.20;;;;;;4995281;28;20175;-83
2022/05/06 23:22:41;;;;;;;20.20;13.60;;;20.40;88.60;;;;;;4995337;28;20223;-83
2022/05/06 23:25:07;;;;;;;18.80;14.10;;;20.10;90.20;;;;;;4995328;28;20272;-83
2022/05/06 23:27:33;;;;;;;20.07;14.10;;;20.00;90.70;;;;;;4995101;28;20200;-84
2022/05/06 23:29:59;;;;;;;20.80;13.30;;;19.90;91.00;;;;;;4995470;28;20208;-84
2022/05/06 23:32:25;;;;;;;18.17;13.57;;;19.80;91.30;;;;;;5012392;28;20205;-83
2022/05/06 23:34:50;;;;;;;23.30;14.40;;;19.90;91.40;;;;;;4995367;28;20178;-83
2022/05/06 23:37:31;;;;;;;18.77;13.37;;;19.80;91.00;;;;;;4998211;28;20216;-83
2022/05/06 23:39:58;;;;;;;20.53;13.60;;;20.10;90.20;;;;;;4999229;28;20272;-83
2022/05/06 23:42:26;;;;;;;21.33;14.47;;;20.60;87.20;;;;;;4998994;28;20179;-83
2022/05/06 23:44:54;;;;;;;22.07;14.47;;;21.00;86.30;;;;;;4999276;28;20291;-85
2022/05/06 23:47:23;;;;;;;21.73;14.17;;;20.80;86.80;;;;;;4998386;28;20684;-83
2022/05/06 23:49:49;;;;;;;20.80;15.03;;;20.60;87.10;;;;;;5016699;28;20204;-83
2022/05/06 23:52:15;;;;;;;19.53;14.83;;;20.90;85.80;;;;;;4998741;28;20683;-82
2022/05/06 23:54:40;;;;;;;24.33;15.70;;;20.80;86.20;;;;;;4999247;28;20178;-83
2022/05/06 23:57:06;;;;;;;20.63;15.57;;;20.60;87.20;;;;;;5016466;28;20175;-83
2022/05/06 23:59:32;;;;;;;27.97;15.63;;;20.40;87.80;;;;;;4998760;28;20180;-82
